createdAt,value
2022-12-12T00:01:49.630Z,-1.50
2022-12-12T00:04:19.346Z,-1.50
2022-12-12T00:06:47.950Z,-1.50
2022-12-12T00:09:16.421Z,-1.50
2022-12-12T00:11:46.229Z,-1.50
2022-12-12T00:14:14.839Z,-1.50
2022-12-12T00:16:42.893Z,-1.50
2022-12-12T00:19:11.381Z,-1.50
2022-12-12T00:21:41.143Z,-1.40
2022-12-12T00:24:10.380Z,-1.30
2022-12-12T00:26:39.620Z,-1.30
2022-12-12T00:29:08.984Z,-1.30
2022-12-12T00:31:37.257Z,-1.20
2022-12-12T00:34:06.237Z,-1.20
2022-12-12T00:36:36.232Z,-1.10
2022-12-12T00:39:06.799Z,-1.10
2022-12-12T00:41:34.883Z,-1.00
2022-12-12T00:44:03.135Z,-1.00
2022-12-12T00:46:33.121Z,-1.00
2022-12-12T00:49:04.093Z,-1.10
2022-12-12T00:51:35.541Z,-1.00
2022-12-12T00:54:04.183Z,-1.00
2022-12-12T00:56:34.645Z,-1.00
2022-12-12T00:59:05.294Z,-1.00
2022-12-12T01:01:36.007Z,-1.00
2022-12-12T01:04:05.936Z,-1.00
2022-12-12T01:06:34.798Z,-0.90
2022-12-12T01:09:03.161Z,-1.00
2022-12-12T01:11:31.970Z,-1.10
2022-12-12T01:14:02.676Z,-1.10
2022-12-12T01:16:31.894Z,-1.10
2022-12-12T01:19:00.469Z,-1.10
2022-12-12T01:21:28.586Z,-1.10
2022-12-12T01:23:56.918Z,-1.20
2022-12-12T01:26:26.246Z,-1.30
2022-12-12T01:28:55.572Z,-1.30
2022-12-12T01:31:25.827Z,-1.30
2022-12-12T01:33:54.640Z,-1.40
2022-12-12T01:36:26.885Z,-1.50
2022-12-12T01:38:57.490Z,-1.70
2022-12-12T01:41:26.803Z,-1.70
2022-12-12T01:43:55.397Z,-1.80
2022-12-12T01:46:37.865Z,-1.80
2022-12-12T01:49:16.430Z,-1.90
2022-12-12T01:51:48.216Z,-1.90
2022-12-12T01:54:23.108Z,-1.90
2022-12-12T01:56:56.225Z,-1.90
2022-12-12T01:59:26.991Z,-1.90
2022-12-12T02:01:58.507Z,-2.00
2022-12-12T02:04:29.355Z,-2.10
2022-12-12T02:07:00.140Z,-2.10
2022-12-12T02:09:30.755Z,-2.10
2022-12-12T02:11:59.798Z,-2.00
2022-12-12T02:14:34.463Z,-2.00
2022-12-12T02:17:40.788Z,-1.90
2022-12-12T02:20:46.727Z,-1.90
2022-12-12T02:24:05.848Z,-1.90
2022-12-12T02:27:26.150Z,-1.90
2022-12-12T02:30:21.531Z,-2.00
2022-12-12T02:33:26.345Z,-2.00
2022-12-12T02:36:14.545Z,-2.00
2022-12-12T02:38:55.755Z,-2.10
2022-12-12T02:41:35.901Z,-2.10
2022-12-12T02:44:20.534Z,-2.00
2022-12-12T02:47:02.323Z,-2.00
2022-12-12T02:49:40.271Z,-2.00
2022-12-12T02:52:11.074Z,-1.90
2022-12-12T02:54:40.004Z,-1.90
2022-12-12T02:57:17.059Z,-1.90
2022-12-12T02:59:52.059Z,-1.90
2022-12-12T03:03:32.247Z,-1.80
2022-12-12T03:06:41.600Z,-1.80
2022-12-12T03:09:20.594Z,-1.90
2022-12-12T03:12:06.018Z,-2.00
2022-12-12T03:14:54.770Z,-2.00
2022-12-12T03:17:34.228Z,-2.10
2022-12-12T03:20:16.353Z,-2.20
2022-12-12T03:22:56.401Z,-2.30
2022-12-12T03:25:34.915Z,-2.40
2022-12-12T03:28:10.650Z,-2.40
2022-12-12T03:30:45.561Z,-2.50
2022-12-12T03:33:25.771Z,-2.50
2022-12-12T03:36:02.616Z,-2.60
2022-12-12T03:38:37.756Z,-2.60
2022-12-12T03:41:13.459Z,-2.60
2022-12-12T03:43:49.790Z,-2.70
2022-12-12T03:46:25.276Z,-2.70
2022-12-12T03:49:05.561Z,-2.70
2022-12-12T03:51:40.828Z,-2.80
2022-12-12T03:54:20.077Z,-3.00
2022-12-12T03:56:56.342Z,-3.00
2022-12-12T03:59:36.361Z,-3.00
2022-12-12T04:02:16.680Z,-3.00
2022-12-12T04:04:57.578Z,-3.10
2022-12-12T04:07:33.521Z,-3.10
2022-12-12T04:10:21.599Z,-3.10
2022-12-12T04:13:04.149Z,-3.20
2022-12-12T04:16:01.178Z,-3.30
2022-12-12T04:18:46.456Z,-3.30
2022-12-12T04:21:51.284Z,-3.30
2022-12-12T04:24:31.399Z,-3.40
2022-12-12T04:27:08.579Z,-3.40
2022-12-12T04:29:47.114Z,-3.40
2022-12-12T04:32:23.897Z,-3.40
2022-12-12T04:35:00.222Z,-3.40
2022-12-12T04:37:35.041Z,-3.40
2022-12-12T04:40:10.408Z,-3.40
2022-12-12T04:42:48.603Z,-3.50
2022-12-12T04:45:21.679Z,-3.60
2022-12-12T04:47:53.902Z,-3.70
2022-12-12T04:50:27.134Z,-3.70
2022-12-12T04:52:59.559Z,-3.70
2022-12-12T04:55:32.513Z,-3.80
2022-12-12T04:58:06.992Z,-3.80
2022-12-12T05:00:46.819Z,-3.80
2022-12-12T05:03:30.935Z,-3.80
2022-12-12T05:06:07.630Z,-3.70
2022-12-12T05:08:40.828Z,-3.70
2022-12-12T05:11:10.297Z,-3.70
2022-12-12T05:13:44.546Z,-3.70
2022-12-12T05:16:21.261Z,-3.80
2022-12-12T05:18:51.290Z,-3.80
2022-12-12T05:21:19.926Z,-3.80
2022-12-12T05:23:48.516Z,-3.80
2022-12-12T05:26:24.003Z,-3.80
2022-12-12T05:28:55.415Z,-3.80
2022-12-12T05:31:24.503Z,-3.80
2022-12-12T05:33:56.048Z,-3.80
2022-12-12T05:36:25.713Z,-3.80
2022-12-12T05:38:54.723Z,-3.80
2022-12-12T05:41:23.002Z,-3.80
2022-12-12T05:43:52.578Z,-3.80
2022-12-12T05:46:23.386Z,-3.80
2022-12-12T05:48:52.043Z,-3.90
2022-12-12T05:51:21.602Z,-3.90
2022-12-12T05:53:50.040Z,-3.90
2022-12-12T05:56:18.544Z,-4.00
2022-12-12T05:58:47.479Z,-4.00
2022-12-12T06:01:15.600Z,-4.10
2022-12-12T06:03:46.198Z,-4.10
2022-12-12T06:06:15.368Z,-4.10
2022-12-12T06:08:43.880Z,-4.10
2022-12-12T06:11:12.726Z,-4.00
2022-12-12T06:13:41.140Z,-4.00
2022-12-12T06:16:14.024Z,-3.90
2022-12-12T06:18:42.693Z,-3.80
2022-12-12T06:21:15.322Z,-3.80
2022-12-12T06:23:45.794Z,-3.70
2022-12-12T06:26:20.225Z,-3.70
2022-12-12T06:28:49.893Z,-3.60
2022-12-12T06:31:19.364Z,-3.60
2022-12-12T06:33:47.654Z,-3.60
2022-12-12T06:36:24.503Z,-3.60
2022-12-12T06:38:54.258Z,-3.60
2022-12-12T06:41:25.139Z,-3.60
2022-12-12T06:43:54.302Z,-3.60
2022-12-12T06:46:26.726Z,-3.60
2022-12-12T06:48:57.950Z,-3.70
2022-12-12T06:51:33.258Z,-3.70
2022-12-12T06:54:01.549Z,-3.70
2022-12-12T06:56:29.858Z,-3.70
2022-12-12T06:59:01.550Z,-3.70
2022-12-12T07:01:29.963Z,-3.70
2022-12-12T07:04:00.117Z,-3.70
2022-12-12T07:06:31.565Z,-3.60
2022-12-12T07:09:00.855Z,-3.50
2022-12-12T07:11:30.049Z,-3.40
2022-12-12T07:14:00.573Z,-3.40
2022-12-12T07:16:29.039Z,-3.30
2022-12-12T07:18:58.233Z,-3.20
2022-12-12T07:21:27.266Z,-3.10
2022-12-12T07:23:57.971Z,-3.10
2022-12-12T07:26:27.020Z,-3.00
2022-12-12T07:28:55.136Z,-3.00
2022-12-12T07:31:27.700Z,-2.90
2022-12-12T07:33:56.431Z,-2.80
2022-12-12T07:36:24.693Z,-2.80
2022-12-12T07:38:52.954Z,-2.80
2022-12-12T07:41:23.820Z,-2.70
2022-12-12T07:43:53.411Z,-2.70
2022-12-12T07:46:26.151Z,-2.60
2022-12-12T07:48:55.014Z,-2.60
2022-12-12T07:51:26.047Z,-2.60
2022-12-12T07:53:54.155Z,-2.60
2022-12-12T07:56:24.619Z,-2.60
2022-12-12T07:58:57.603Z,-2.50
2022-12-12T08:01:29.581Z,-2.40
2022-12-12T08:03:59.916Z,-2.30
2022-12-12T08:06:28.406Z,-2.30
2022-12-12T08:08:58.304Z,-2.20
2022-12-12T08:11:28.564Z,-2.10
2022-12-12T08:13:56.991Z,-2.00
2022-12-12T08:16:30.279Z,-1.90
2022-12-12T08:19:01.000Z,-1.80
2022-12-12T08:21:31.220Z,-1.80
2022-12-12T08:24:01.571Z,-1.80
2022-12-12T08:26:31.910Z,-1.80
2022-12-12T08:29:01.237Z,-1.70
2022-12-12T08:31:30.158Z,-1.70
2022-12-12T08:34:00.206Z,-1.60
2022-12-12T08:36:30.993Z,-1.50
2022-12-12T08:39:03.516Z,-1.40
2022-12-12T08:41:33.237Z,-1.30
2022-12-12T08:44:01.560Z,-1.30
2022-12-12T08:46:30.599Z,-1.20
2022-12-12T08:48:58.780Z,-1.10
2022-12-12T08:51:27.080Z,-1.10
2022-12-12T08:53:56.116Z,-1.10
2022-12-12T08:56:26.368Z,-1.00
2022-12-12T09:01:42.350Z,-0.90
2022-12-12T09:04:10.657Z,-0.80
2022-12-12T09:06:38.788Z,-0.80
2022-12-12T09:09:06.913Z,-0.70
2022-12-12T09:11:35.085Z,-0.70
2022-12-12T09:14:04.563Z,-0.70
2022-12-12T09:16:33.191Z,-0.60
2022-12-12T09:19:02.540Z,-0.70
2022-12-12T09:21:30.807Z,-0.50
2022-12-12T09:23:59.116Z,-0.40
2022-12-12T09:26:27.383Z,-0.40
2022-12-12T09:28:56.610Z,-0.30
2022-12-12T09:31:26.330Z,-0.30
2022-12-12T09:33:55.327Z,-0.20
2022-12-12T09:36:24.453Z,-0.10
2022-12-12T09:38:53.361Z,-0.10
2022-12-12T09:41:27.193Z,0.10
2022-12-12T09:44:01.614Z,0.20
2022-12-12T09:46:38.734Z,0.30
2022-12-12T09:49:17.265Z,0.40
2022-12-12T09:51:50.004Z,0.50
2022-12-12T09:54:22.560Z,0.50
2022-12-12T09:57:15.530Z,0.50
2022-12-12T09:59:52.439Z,0.60
2022-12-12T10:02:49.397Z,0.70
2022-12-12T10:05:35.015Z,0.70
2022-12-12T10:08:20.029Z,0.70
2022-12-12T10:10:53.200Z,0.80
2022-12-12T10:13:28.083Z,0.90
2022-12-12T10:16:04.772Z,0.90
2022-12-12T10:18:42.259Z,1.10
2022-12-12T10:21:18.822Z,1.40
2022-12-12T10:23:51.691Z,1.60
2022-12-12T10:26:25.050Z,1.80
2022-12-12T10:28:59.970Z,1.70
2022-12-12T10:31:41.580Z,1.80
2022-12-12T10:34:33.671Z,1.70
2022-12-12T10:37:21.646Z,1.70
2022-12-12T10:40:04.599Z,1.80
2022-12-12T10:42:42.669Z,2.10
2022-12-12T10:45:48.664Z,2.50
2022-12-12T10:48:18.057Z,2.90
2022-12-12T10:50:53.044Z,3.20
2022-12-12T10:53:22.923Z,3.30
2022-12-12T10:55:55.182Z,3.50
2022-12-12T10:58:27.856Z,3.70
2022-12-12T11:01:04.783Z,4.10
2022-12-12T11:03:38.476Z,4.40
2022-12-12T11:06:15.376Z,4.80
2022-12-12T11:08:57.606Z,4.80
2022-12-12T11:11:28.238Z,4.60
2022-12-12T11:14:00.611Z,4.40
2022-12-12T11:16:32.139Z,4.10
2022-12-12T11:19:06.457Z,4.10
2022-12-12T11:21:39.611Z,3.70
2022-12-12T11:24:15.680Z,3.60
2022-12-12T11:26:50.106Z,3.50
2022-12-12T11:29:32.186Z,3.50
2022-12-12T11:32:01.488Z,3.60
2022-12-12T11:34:33.953Z,4.10
2022-12-12T11:37:04.724Z,5.00
2022-12-12T11:39:44.693Z,6.40
2022-12-12T11:42:23.566Z,7.10
2022-12-12T11:45:02.757Z,6.70
2022-12-12T11:47:39.075Z,6.00
2022-12-12T11:50:22.989Z,5.00
2022-12-12T11:52:56.195Z,4.10
2022-12-12T11:55:47.126Z,3.40
2022-12-12T11:58:27.055Z,2.90
2022-12-12T12:01:05.073Z,2.60
2022-12-12T12:04:00.435Z,2.30
2022-12-12T12:06:49.162Z,2.00
2022-12-12T12:09:34.644Z,1.90
2022-12-12T12:12:14.128Z,1.70
2022-12-12T12:15:19.660Z,1.60
2022-12-12T12:18:17.056Z,1.60
2022-12-12T12:21:13.666Z,1.60
2022-12-12T12:23:56.457Z,1.50
2022-12-12T12:26:36.304Z,1.60
2022-12-12T12:29:28.536Z,1.40
2022-12-12T12:32:13.086Z,1.40
2022-12-12T12:34:57.517Z,1.40
2022-12-12T12:37:49.609Z,1.50
2022-12-12T12:40:39.908Z,1.40
2022-12-12T12:43:38.313Z,1.40
2022-12-12T12:46:19.245Z,1.40
2022-12-12T12:48:51.997Z,1.40
2022-12-12T12:51:28.339Z,1.40
2022-12-12T12:54:06.324Z,1.30
2022-12-12T12:56:43.905Z,1.30
2022-12-12T12:59:21.138Z,1.30
2022-12-12T13:01:53.602Z,1.30
2022-12-12T13:04:27.902Z,1.10
2022-12-12T13:07:04.305Z,1.10
2022-12-12T13:09:42.945Z,1.20
2022-12-12T13:12:19.898Z,1.10
2022-12-12T13:14:55.704Z,1.10
2022-12-12T13:17:34.791Z,1.10
2022-12-12T13:20:05.045Z,1.10
2022-12-12T13:22:52.624Z,1.10
2022-12-12T13:25:36.791Z,1.10
2022-12-12T13:28:14.123Z,1.20
2022-12-12T13:31:13.845Z,1.30
2022-12-12T13:33:47.729Z,1.40
2022-12-12T13:36:29.078Z,1.50
2022-12-12T13:39:01.362Z,1.60
2022-12-12T13:42:00.449Z,1.60
2022-12-12T13:44:39.487Z,1.70
2022-12-12T13:47:47.995Z,1.60
2022-12-12T13:50:23.353Z,1.50
2022-12-12T13:53:18.797Z,1.50
2022-12-12T13:55:47.794Z,1.40
2022-12-12T13:58:34.093Z,1.30
2022-12-12T14:01:40.581Z,1.30
2022-12-12T14:04:27.467Z,1.20
2022-12-12T14:07:06.395Z,1.20
2022-12-12T14:09:48.209Z,1.10
2022-12-12T14:12:30.659Z,1.10
2022-12-12T14:15:04.191Z,1.10
2022-12-12T14:17:42.090Z,1.00
2022-12-12T14:20:30.239Z,1.00
2022-12-12T14:23:29.074Z,1.10
2022-12-12T14:25:58.744Z,1.00
2022-12-12T14:28:29.658Z,1.00
2022-12-12T14:31:15.556Z,0.90
2022-12-12T14:34:21.891Z,0.80
2022-12-12T14:37:29.768Z,0.70
2022-12-12T14:40:18.357Z,0.60
2022-12-12T14:43:15.889Z,0.60
2022-12-12T14:45:57.779Z,0.60
2022-12-12T14:48:28.896Z,0.50
2022-12-12T14:51:05.894Z,0.50
2022-12-12T14:53:48.201Z,0.40
2022-12-12T14:56:20.132Z,0.30
2022-12-12T14:58:58.654Z,0.30
2022-12-12T15:01:36.291Z,0.30
2022-12-12T15:04:09.709Z,0.20
2022-12-12T15:06:40.439Z,0.20
2022-12-12T15:09:29.429Z,0.00
2022-12-12T15:12:14.587Z,0.00
2022-12-12T15:14:56.635Z,0.00
2022-12-12T15:17:30.077Z,-0.10
2022-12-12T15:20:03.943Z,-0.10
2022-12-12T15:22:35.541Z,-0.20
2022-12-12T15:25:17.559Z,-0.20
2022-12-12T15:27:55.803Z,-0.30
2022-12-12T15:30:36.880Z,-0.40
2022-12-12T15:33:09.564Z,-0.40
2022-12-12T15:35:37.871Z,-0.50
2022-12-12T15:38:13.446Z,-0.50
2022-12-12T15:40:48.931Z,-0.60
2022-12-12T15:43:23.256Z,-0.70
2022-12-12T15:45:56.301Z,-0.80
2022-12-12T15:48:26.730Z,-0.80
2022-12-12T15:50:58.825Z,-0.90
2022-12-12T15:53:30.171Z,-1.00
2022-12-12T15:56:05.157Z,-1.10
2022-12-12T15:58:38.492Z,-1.20
2022-12-12T16:01:21.195Z,-1.30
2022-12-12T16:04:00.327Z,-1.30
2022-12-12T16:06:31.826Z,-1.40
2022-12-12T16:09:10.363Z,-1.50
2022-12-12T16:11:47.119Z,-1.50
2022-12-12T16:14:39.434Z,-1.50
2022-12-12T16:17:14.276Z,-1.60
2022-12-12T16:19:49.132Z,-1.60
2022-12-12T16:22:33.583Z,-1.70
2022-12-12T16:25:19.385Z,-1.70
2022-12-12T16:28:02.860Z,-1.80
2022-12-12T16:30:31.807Z,-1.80
2022-12-12T16:33:01.100Z,-1.80
2022-12-12T16:35:29.715Z,-1.90
2022-12-12T16:37:59.163Z,-1.90
2022-12-12T16:40:27.781Z,-1.90
2022-12-12T16:43:10.738Z,-1.90
2022-12-12T16:45:40.426Z,-2.00
2022-12-12T16:48:16.660Z,-2.10
2022-12-12T16:50:46.408Z,-2.20
2022-12-12T16:53:16.443Z,-2.20
2022-12-12T16:55:48.712Z,-2.30
2022-12-12T16:58:21.192Z,-2.40
2022-12-12T17:00:53.277Z,-2.40
2022-12-12T17:03:24.436Z,-2.50
2022-12-12T17:05:53.884Z,-2.50
2022-12-12T17:08:22.636Z,-2.60
2022-12-12T17:11:10.676Z,-2.60
2022-12-12T17:13:47.668Z,-2.60
2022-12-12T17:16:16.223Z,-2.60
2022-12-12T17:18:44.635Z,-2.60
2022-12-12T17:21:12.990Z,-2.60
2022-12-12T17:23:42.201Z,-2.60
2022-12-12T17:26:11.600Z,-2.70
2022-12-12T17:28:41.226Z,-2.70
2022-12-12T17:31:11.204Z,-2.70
2022-12-12T17:33:49.858Z,-2.70
2022-12-12T17:36:19.142Z,-2.70
2022-12-12T17:38:49.052Z,-2.80
2022-12-12T17:41:17.483Z,-2.80
2022-12-12T17:43:52.053Z,-2.80
2022-12-12T17:46:24.998Z,-2.80
2022-12-12T17:48:53.683Z,-2.90
2022-12-12T17:51:24.563Z,-2.90
2022-12-12T17:53:53.408Z,-2.90
2022-12-12T17:56:26.434Z,-2.90
2022-12-12T17:58:56.141Z,-2.90
2022-12-12T18:01:26.937Z,-2.90
2022-12-12T18:03:56.693Z,-2.90
2022-12-12T18:06:26.657Z,-2.90
2022-12-12T18:08:57.074Z,-2.90
2022-12-12T18:11:28.157Z,-2.90
2022-12-12T18:14:00.470Z,-2.90
2022-12-12T18:16:33.086Z,-2.10
2022-12-12T18:19:03.265Z,-2.90
2022-12-12T18:24:29.300Z,-2.90
2022-12-12T18:27:00.535Z,-2.90
2022-12-12T18:29:30.889Z,-2.80
2022-12-12T18:31:59.584Z,-2.80
2022-12-12T18:34:28.845Z,-2.70
2022-12-12T18:36:58.067Z,-2.70
2022-12-12T18:39:26.377Z,-2.30
2022-12-12T18:41:54.576Z,-2.60
2022-12-12T18:44:23.135Z,-2.50
2022-12-12T18:46:54.103Z,-2.50
2022-12-12T18:49:22.778Z,-2.50
2022-12-12T18:51:51.064Z,-2.50
2022-12-12T18:54:20.389Z,-2.50
2022-12-12T18:56:49.291Z,-2.50
2022-12-12T18:59:18.271Z,-2.50
2022-12-12T19:01:48.049Z,-2.50
2022-12-12T19:04:23.196Z,-2.50
2022-12-12T19:06:53.018Z,-2.50
2022-12-12T19:09:23.170Z,-2.50
2022-12-12T19:11:58.240Z,-2.50
2022-12-12T19:14:46.045Z,-2.60
2022-12-12T19:17:25.716Z,-2.60
2022-12-12T19:19:57.545Z,-2.60
2022-12-12T19:25:16.360Z,-2.70
2022-12-12T19:27:45.759Z,-2.70
2022-12-12T19:30:16.409Z,-2.70
2022-12-12T19:32:48.898Z,-2.70
2022-12-12T19:35:19.438Z,-2.70
2022-12-12T19:37:47.791Z,-2.80
2022-12-12T19:40:16.893Z,-2.80
2022-12-12T19:42:45.685Z,-2.90
2022-12-12T19:45:13.823Z,-2.90
2022-12-12T19:47:42.276Z,-2.90
2022-12-12T19:50:11.443Z,-2.90
2022-12-12T19:52:41.484Z,-2.90
2022-12-12T19:55:10.433Z,-2.90
2022-12-12T19:57:39.265Z,-2.90
2022-12-12T20:00:09.744Z,-2.90
2022-12-12T20:02:38.328Z,-2.90
2022-12-12T20:05:07.048Z,-2.90
2022-12-12T20:07:36.812Z,-2.90
2022-12-12T20:10:09.926Z,-2.90
2022-12-12T20:12:46.202Z,-3.00
2022-12-12T20:15:21.411Z,-3.00
2022-12-12T20:17:50.875Z,-3.00
2022-12-12T20:20:19.350Z,-3.00
2022-12-12T20:22:47.535Z,-3.10
2022-12-12T20:25:17.505Z,-3.10
2022-12-12T20:27:45.695Z,-3.10
2022-12-12T20:30:15.036Z,-3.20
2022-12-12T20:32:43.288Z,-3.20
2022-12-12T20:35:12.672Z,-3.20
2022-12-12T20:37:42.296Z,-3.30
2022-12-12T20:40:12.676Z,-3.30
2022-12-12T20:42:43.062Z,-3.30
2022-12-12T20:45:12.949Z,-3.30
2022-12-12T20:47:41.383Z,-3.30
2022-12-12T20:50:10.698Z,-3.40
2022-12-12T20:52:39.634Z,-3.40
2022-12-12T20:55:11.619Z,-3.40
2022-12-12T20:57:41.804Z,-3.40
2022-12-12T21:00:13.536Z,-3.40
2022-12-12T21:02:41.842Z,-3.40
2022-12-12T21:05:10.748Z,-3.40
2022-12-12T21:07:39.589Z,-3.40
2022-12-12T21:10:08.428Z,-3.40
2022-12-12T21:12:36.639Z,-3.40
2022-12-12T21:15:05.912Z,-3.40
2022-12-12T21:17:35.590Z,-3.40
2022-12-12T21:20:06.877Z,-3.40
2022-12-12T21:22:35.691Z,-3.40
2022-12-12T21:25:04.026Z,-3.40
2022-12-12T21:27:33.111Z,-3.50
2022-12-12T21:30:03.544Z,-3.50
2022-12-12T21:32:32.356Z,-3.50
2022-12-12T21:35:02.048Z,-3.50
2022-12-12T21:37:31.900Z,-3.50
2022-12-12T21:40:01.898Z,-3.50
2022-12-12T21:42:31.117Z,-3.10
2022-12-12T21:44:59.266Z,-3.50
2022-12-12T21:47:28.455Z,-3.50
2022-12-12T21:49:56.680Z,-3.50
2022-12-12T21:52:26.200Z,-3.50
2022-12-12T21:54:54.582Z,-3.50
2022-12-12T21:57:24.920Z,-3.60
2022-12-12T21:59:53.286Z,-3.60
2022-12-12T22:02:21.838Z,-3.50
2022-12-12T22:04:50.016Z,-3.50
2022-12-12T22:07:19.811Z,-3.50
2022-12-12T22:09:57.912Z,-3.50
2022-12-12T22:12:37.899Z,-3.50
2022-12-12T22:15:07.791Z,-3.50
2022-12-12T22:17:35.887Z,-3.60
2022-12-12T22:20:04.329Z,-3.60
2022-12-12T22:22:32.287Z,-3.80
2022-12-12T22:25:02.914Z,-3.80
2022-12-12T22:27:31.061Z,-3.90
2022-12-12T22:29:59.207Z,-4.00
2022-12-12T22:32:29.464Z,-4.00
2022-12-12T22:34:58.709Z,-3.90
2022-12-12T22:37:27.537Z,-3.90
2022-12-12T22:39:55.678Z,-3.90
2022-12-12T22:42:25.433Z,-3.90
2022-12-12T22:44:53.644Z,-3.90
2022-12-12T22:47:23.815Z,-3.90
2022-12-12T22:49:52.886Z,-3.90
2022-12-12T22:52:20.994Z,-3.90
2022-12-12T22:54:49.486Z,-3.90
2022-12-12T22:57:17.596Z,-4.00
2022-12-12T22:59:47.086Z,-4.10
2022-12-12T23:02:21.562Z,-4.10
2022-12-12T23:04:53.309Z,-4.20
2022-12-12T23:07:23.368Z,-4.20
2022-12-12T23:09:53.420Z,-4.20
2022-12-12T23:12:22.815Z,-4.20
2022-12-12T23:14:52.344Z,-4.30
2022-12-12T23:17:21.334Z,-4.30
2022-12-12T23:19:49.557Z,-4.30
2022-12-12T23:22:18.432Z,-4.20
2022-12-12T23:24:47.727Z,-4.20
2022-12-12T23:27:16.177Z,-4.20
2022-12-12T23:29:45.042Z,-4.20
2022-12-12T23:32:15.217Z,-4.20
2022-12-12T23:34:43.752Z,-4.20
2022-12-12T23:37:12.159Z,-4.20
2022-12-12T23:39:40.756Z,-4.10
2022-12-12T23:42:09.261Z,-4.00
2022-12-12T23:44:38.921Z,-4.00
2022-12-12T23:47:10.405Z,-4.00
2022-12-12T23:49:40.205Z,-4.10
2022-12-12T23:52:08.915Z,-4.10
2022-12-12T23:54:37.816Z,-4.10
2022-12-12T23:57:06.343Z,-4.10
2022-12-12T23:59:34.562Z,-4.20
